DW9545 Weather Reports


Display with metric or nautical units.
time (UTC)temp
F
wind
direction
speed
MPH
gust
MPH
rain 1hr
in
rain 24hr
in
rain mn
in
humidity
%
barometer
mb
20200602144621 59 225 0.0 1.0 0.00 0.00 0.00 64 1003.8
20200602143133 58 229 0.0 2.0 0.00 0.00 0.00 65 1004.1
20200602140100 58 248 0.0 4.0 0.00 0.00 0.00 67 1004.1
20200602134554 56 240 0.0 2.0 0.00 0.00 0.00 72 1004.3
20200602133038 56 263 0.0 3.0 0.00 0.00 0.00 72 1004.3
20200602131654 56 218 0.0 2.0 0.00 0.00 0.00 72 1004.5
20200602130052 56 212 0.0 3.0 0.00 0.00 0.00 72 1004.5
20200602124556 56 147 0.0 4.0 0.00 0.00 0.00 73 1004.7
20200602123040 54 246 0.0 0.0 0.00 0.00 0.00 78 1005.0
20200602121602 52 112 0.0 0.0 0.00 0.00 0.00 83 1005.0
20200602120046 49 253 0.0 0.0 0.00 0.00 0.00 89 1005.1
20200602114519 48 71 0.0 0.0 0.00 0.00 0.00 96 1005.1
20200602113043 45 77 0.0 0.0 0.00 0.00 0.00 97 1005.2
20200602111511 43 302 0.0 0.0 0.00 0.00 0.00 97 1005.5
20200602110010 42 322 0.0 0.0 0.00 0.00 0.00 96 1005.5
20200602104538 41 38 0.0 0.0 0.00 0.00 0.00 97 1005.5
20200602103035 0 0.0 0.0 0.00 0.00 0.00 1005.6
20200602101736 0 0.0 0.0 0.00 0.00 0.00 1005.8
20200602100131 0 0.0 0.0 0.00 0.00 0.00 1005.9
20200602094832 0 0.0 0.0 0.00 0.00 0.00 1005.8
20200602093129 0 0.0 0.0 0.00 0.00 0.00 1005.5
20200602091613 37 8 0.0 0.0 0.00 0.00 0.00 95 1005.5
20200602090130 37 8 0.0 0.0 0.00 0.00 0.00 96 1005.5
20200602084617 38 8 0.0 0.0 0.00 0.00 0.00 96 1005.3
20200602083111 38 8 0.0 0.0 0.00 0.00 0.00 96 1005.2
20200602081558 38 8 0.0 0.0 0.00 0.00 0.00 96 1005.1
20200602080154 38 8 0.0 0.0 0.00 0.00 0.00 96 1005.1
20200602074633 38 350 0.0 0.0 0.00 0.00 0.00 96 1005.3
20200602073052 38 349 0.0 0.0 0.00 0.00 0.00 96 1005.2
20200602071650 38 17 0.0 0.0 0.00 0.00 0.00 95 1005.4
20200602070044 39 17 0.0 0.0 0.00 0.00 0.00 95 1005.4
20200602064641 39 18 0.0 0.0 0.00 0.00 0.00 95 1005.5
20200602063119 39 17 0.0 0.0 0.00 0.00 0.00 94 1005.5
20200602061624 40 17 0.0 0.0 0.00 0.00 0.00 95 1005.6
20200602060132 40 17 0.0 0.0 0.00 0.00 0.00 94 1005.6
20200602054528 41 18 0.0 0.0 0.00 0.00 0.00 94 1005.6
20200602053112 41 17 0.0 0.0 0.00 0.00 0.00 93 1005.7
20200602051524 42 17 0.0 0.0 0.00 0.00 0.00 93 1005.7
20200602050111 42 15 0.0 0.0 0.00 0.00 0.00 93 1005.8
20200602044515 43 15 0.0 0.0 0.00 0.00 0.00 92 1005.9
20200602043018 43 15 0.0 0.0 0.00 0.00 0.00 92 1006.0
20200602041547 43 15 0.0 0.0 0.00 0.00 0.00 92 1006.2
20200602040036 43 348 0.0 0.0 0.00 0.00 0.00 92 1006.6
20200602034512 44 343 0.0 0.0 0.00 0.00 0.00 90 1006.5
20200602033028 44 343 0.0 0.0 0.00 0.00 0.00 90 1006.6
20200602031508 44 309 0.0 0.0 0.00 0.00 0.00 90 1006.6
20200602030005 45 266 0.0 0.0 0.00 0.00 0.00 89 1006.9
20200602024518 45 260 0.0 1.0 0.00 0.00 0.00 89 1006.8
20200602023004 45 43 0.0 1.0 0.00 0.00 0.00 87 1007.0
20200602021506 46 43 0.0 0.0 0.00 0.00 0.00 85 1006.9
20200602020012 46 44 0.0 0.0 0.00 0.00 0.00 84 1006.8
20200602014504 47 46 0.0 1.0 0.00 0.00 0.00 82 1006.9
20200602013004 47 44 0.0 0.0 0.00 0.00 0.00 80 1006.6
20200602011505 49 276 0.0 0.0 0.00 0.00 0.00 76 1006.5
20200602010006 51 276 0.0 0.0 0.00 0.00 0.00 72 1006.3
20200602004506 53 275 0.0 1.0 0.00 0.00 0.00 66 1006.2
20200602003140 54 313 0.0 0.0 0.00 0.00 0.00 63 1006.3
20200602001619 54 340 0.0 0.0 0.00 0.00 0.00 62 1006.5
20200602000134 55 283 0.0 4.0 0.00 0.00 0.00 60 1006.5
20200601234717 56 262 1.0 8.0 0.00 0.00 0.00 58 1006.4
20200601233206 57 308 2.0 8.0 0.00 0.00 0.00 56 1006.3
20200601231754 57 283 3.0 9.0 0.00 0.00 0.00 56 1006.4
20200601230156 57 256 1.0 11.0 0.00 0.00 0.00 54 1006.3
20200601224821 57 281 0.0 3.0 0.00 0.00 0.00 57 1006.5
20200601223257 57 252 0.0 5.0 0.00 0.00 0.00 55 1006.4
20200601221621 57 262 0.0 4.0 0.00 0.00 0.00 55 1006.3
20200601220117 59 307 2.0 13.0 0.00 0.00 0.00 51 1006.3
20200601214613 60 304 2.0 8.0 0.00 0.00 0.00 43 1005.9
20200601213145 61 283 1.0 7.0 0.00 0.00 0.00 41 1005.6
20200601211724 63 293 1.0 8.0 0.00 0.00 0.00 38 1005.6
20200601210155 64 241 1.0 8.0 0.00 0.00 0.00 39 1005.6
20200601204639 63 287 2.0 7.0 0.00 0.00 0.00 38 1005.6
20200601203113 62 332 1.0 5.0 0.00 0.00 0.00 39 1005.8
20200601201630 62 339 2.0 9.0 0.00 0.00 0.00 40 1005.9
20200601200122 62 283 5.0 14.0 0.00 0.00 0.00 37 1005.9
20200601194625 62 276 2.0 9.0 0.00 0.00 0.00 36 1006.1
20200601193120 62 346 3.0 11.0 0.00 0.00 0.00 39 1006.2
20200601191606 62 292 1.0 9.0 0.00 0.00 0.00 40 1006.5
20200601190105 61 271 1.0 11.0 0.00 0.00 0.00 37 1006.6
20200601184538 60 238 2.0 9.0 0.00 0.00 0.00 38 1006.7
20200601183104 61 243 2.0 11.0 0.00 0.00 0.00 41 1006.8
20200601181554 61 358 1.0 17.0 0.00 0.00 0.00 39 1007.0
20200601180130 60 36 1.0 10.0 0.00 0.00 0.00 42 1007.1
20200601174553 59 25 1.0 8.0 0.00 0.00 0.00 43 1007.3
20200601173117 59 304 3.0 9.0 0.00 0.00 0.00 42 1007.6
20200601171704 59 262 2.0 9.0 0.00 0.00 0.00 45 1007.6
20200601170036 59 291 4.0 11.0 0.00 0.00 0.00 42 1007.8
20200601164529 59 54 3.0 13.0 0.00 0.00 0.00 46 1007.9
20200601163025 59 41 1.0 6.0 0.00 0.00 0.00 44 1008.1
20200601161516 59 281 2.0 11.0 0.00 0.00 0.00 44 1008.5
20200601160035 59 342 2.0 6.0 0.00 0.00 0.00 44 1008.8
20200601154511 58 17 2.0 9.0 0.00 0.00 0.00 47 1008.9
20200601153020 56 332 1.0 8.0 0.00 0.00 0.00 47 1009.3
20200601151506 56 256 3.0 10.0 0.00 0.00 0.00 48 1009.4
20200601150006 56 260 3.0 11.0 0.00 0.00 0.00 47 1009.8